KOUN/OUN METAR and TAF weather

Enter ICAO airport designator
Station Type Date Time Source
KOUN METAR 2019/10/23 01:45 UTC NOAA

KOUN 230145Z 16005KT 10SM CLR 12/01 A3006


Station Type Date Time Source
KOUN Decoded METAR 2019/10/23 01:45 UTC NOAA

Norman / Max Westheimer, OK, United States (KOUN) 35-13N 097-27W 357M
Oct 22, 2019 - 09:45 PM EDT / 2019.10.23 0145 UTC
Wind: from the SSE (160 degrees) at 6 MPH (5 KT):0
Visibility: 10 mile(s):0
Sky conditions: clear
Temperature: 53 F (12 C)
Dew Point: 33 F (1 C)
Relative Humidity: 46%
Pressure (altimeter): 30.06 in. Hg (1017 hPa)
ob: KOUN 230145Z 16005KT 10SM CLR 12/01 A3006
cycle: 2

Station Type Date Time Source
KOUN TAF 2019/10/22 18:39 UTC NOAA

TAF KOUN 221736Z 2218/2318 24008KT P6SM SKC
FM230000 17009KT P6SM SKC
FM231500 18017G26KT P6SM SCT250

Example: see airport list